Langara, Canada
Current Conditions -  °F | °C
As of 10:00 AM on Saturday 25 Oct 2014 (Local Time) from CZMT Reporting Station
Few Clouds Few Clouds  
Wind Chill: 45°   Ceiling: Unl
Heat Index: 45°   Visibility: 15mi
Dew Point: 43°   Wind: 2mph
Humidity: 93%   Direction: NA
Pressure: 29.6"   Gusts: NA
Location:  54.23°N, 133°W
Report Text: CZMT 251700Z VRB02KT 15SM FEW015 07/06 A2960 RMK SC1 SC TR SLP024
Loading
Personal Weather Stations






























Interactive Weather Map New forecast layout! Learn more

10-Day Weather Forecast

Advertisements
Track Severe Weather on mobile